createdAt,value
2018-05-29T00:01:10.996Z,22.00
2018-05-29T00:03:38.758Z,22.00
2018-05-29T00:06:06.626Z,22.00
2018-05-29T00:08:34.494Z,21.90
2018-05-29T00:11:02.292Z,21.90
2018-05-29T00:13:30.124Z,21.90
2018-05-29T00:15:58.605Z,21.80
2018-05-29T00:18:26.472Z,21.80
2018-05-29T00:20:54.236Z,21.80
2018-05-29T00:23:22.039Z,21.80
2018-05-29T00:25:49.867Z,21.70
2018-05-29T00:28:17.400Z,21.80
2018-05-29T00:30:45.678Z,21.80
2018-05-29T00:33:13.957Z,21.80
2018-05-29T00:35:42.221Z,21.80
2018-05-29T00:38:10.486Z,21.80
2018-05-29T00:40:37.996Z,21.80
2018-05-29T00:43:05.509Z,21.80
2018-05-29T00:45:33.777Z,21.70
2018-05-29T00:48:01.294Z,21.70
2018-05-29T00:50:28.812Z,21.70
2018-05-29T00:52:57.079Z,21.60
2018-05-29T00:55:39.211Z,21.60
2018-05-29T00:58:06.720Z,21.60
2018-05-29T01:00:35.738Z,21.60
2018-05-29T01:03:04.006Z,21.60
2018-05-29T01:05:31.510Z,21.60
2018-05-29T01:07:59.010Z,21.50
2018-05-29T01:10:28.018Z,21.60
2018-05-29T01:12:55.525Z,21.60
2018-05-29T01:15:23.054Z,21.60
2018-05-29T01:17:51.318Z,21.70
2018-05-29T01:20:19.588Z,21.70
2018-05-29T01:22:47.174Z,21.60
2018-05-29T01:25:14.688Z,21.70
2018-05-29T01:27:42.955Z,21.60
2018-05-29T01:30:10.584Z,21.60
2018-05-29T01:32:38.106Z,21.60
2018-05-29T01:35:06.374Z,21.60
2018-05-29T01:37:33.877Z,21.60
2018-05-29T01:40:01.385Z,21.60
2018-05-29T01:42:28.886Z,21.60
2018-05-29T01:44:56.385Z,21.60
2018-05-29T01:47:23.935Z,21.60
2018-05-29T01:52:25.458Z,21.60
2018-05-29T01:54:53.733Z,21.70
2018-05-29T01:57:22.018Z,21.70
2018-05-29T01:59:49.534Z,21.70
2018-05-29T02:02:17.155Z,21.70
2018-05-29T02:04:44.654Z,21.70
2018-05-29T02:07:12.161Z,21.70
2018-05-29T02:09:39.657Z,21.70
2018-05-29T02:12:07.161Z,21.80
2018-05-29T02:14:35.445Z,21.80
2018-05-29T02:17:03.717Z,21.80
2018-05-29T02:19:31.984Z,21.80
2018-05-29T02:22:00.249Z,21.80
2018-05-29T02:24:27.741Z,21.70
2018-05-29T02:26:55.237Z,21.80
2018-05-29T02:29:22.753Z,21.70
2018-05-29T02:31:50.254Z,21.70
2018-05-29T02:34:17.761Z,21.80
2018-05-29T02:36:46.044Z,21.70
2018-05-29T02:39:13.551Z,21.70
2018-05-29T02:41:41.065Z,21.70
2018-05-29T02:44:08.565Z,21.70
2018-05-29T02:46:36.094Z,21.70
2018-05-29T02:49:03.617Z,21.70
2018-05-29T02:51:31.901Z,21.70
2018-05-29T02:54:00.169Z,21.60
2018-05-29T02:56:28.441Z,21.60
2018-05-29T02:58:56.713Z,21.50
2018-05-29T03:01:24.217Z,21.50
2018-05-29T03:03:51.734Z,21.50
2018-05-29T03:06:19.234Z,21.50
2018-05-29T03:08:46.817Z,21.50
2018-05-29T03:11:14.317Z,21.50
2018-05-29T03:13:42.577Z,21.60
2018-05-29T03:16:10.081Z,21.50
2018-05-29T03:18:37.611Z,21.50
2018-05-29T03:21:05.880Z,21.50
2018-05-29T03:23:34.166Z,21.50
2018-05-29T03:26:02.455Z,21.50
2018-05-29T03:28:29.965Z,21.50
2018-05-29T03:30:57.484Z,21.50
2018-05-29T03:33:24.989Z,21.50
2018-05-29T03:35:52.491Z,21.50
2018-05-29T03:38:20.042Z,21.50
2018-05-29T03:40:48.313Z,21.40
2018-05-29T03:43:16.593Z,21.50
2018-05-29T03:45:44.866Z,21.50
2018-05-29T03:48:13.138Z,21.50
2018-05-29T03:50:42.410Z,21.60
2018-05-29T03:53:09.909Z,21.60
2018-05-29T03:55:38.187Z,21.70
2018-05-29T03:58:05.705Z,21.70
2018-05-29T04:00:33.205Z,21.70
2018-05-29T04:03:00.732Z,21.70
2018-05-29T04:05:29.001Z,21.70
2018-05-29T04:07:56.545Z,21.70
2018-05-29T04:10:24.039Z,21.70
2018-05-29T04:12:52.324Z,21.70
2018-05-29T04:15:20.603Z,21.70
2018-05-29T04:17:48.870Z,21.70
2018-05-29T04:20:17.135Z,21.70
2018-05-29T04:22:44.645Z,21.70
2018-05-29T04:25:12.150Z,21.70
2018-05-29T04:27:39.649Z,21.60
2018-05-29T04:30:07.166Z,21.70
2018-05-29T04:32:35.434Z,21.70
2018-05-29T04:35:02.966Z,21.60
2018-05-29T04:37:30.473Z,21.70
2018-05-29T04:39:58.750Z,21.80
2018-05-29T04:42:27.025Z,21.90
2018-05-29T04:44:55.301Z,22.00
2018-05-29T04:47:23.593Z,22.00
2018-05-29T04:49:51.861Z,22.10
2018-05-29T04:52:20.131Z,22.20
2018-05-29T04:54:48.401Z,22.30
2018-05-29T04:57:15.906Z,22.20
2018-05-29T04:59:43.435Z,22.30
2018-05-29T05:02:11.739Z,22.40
2018-05-29T05:04:39.234Z,22.40
2018-05-29T05:07:06.733Z,22.50
2018-05-29T05:09:34.989Z,22.60
2018-05-29T05:12:02.489Z,22.50
2018-05-29T05:14:30.027Z,22.60
2018-05-29T05:16:58.293Z,22.70
2018-05-29T05:19:26.557Z,22.80
2018-05-29T05:21:54.062Z,22.80
2018-05-29T05:24:21.566Z,22.80
2018-05-29T05:26:49.066Z,22.90
2018-05-29T05:29:16.569Z,22.90
2018-05-29T05:31:44.100Z,23.00
2018-05-29T05:34:12.635Z,23.10
2018-05-29T05:36:40.914Z,23.20
2018-05-29T05:39:09.201Z,23.20
2018-05-29T05:41:37.486Z,23.20
2018-05-29T05:44:05.753Z,23.20
2018-05-29T05:46:34.041Z,23.20
2018-05-29T05:49:02.331Z,23.30
2018-05-29T05:51:29.842Z,23.30
2018-05-29T05:53:58.171Z,23.40
2018-05-29T05:56:25.689Z,23.40
2018-05-29T05:58:53.992Z,23.60
2018-05-29T06:01:21.533Z,23.60
2018-05-29T06:03:49.926Z,23.70
2018-05-29T06:06:18.205Z,23.80
2018-05-29T06:08:45.712Z,23.80
2018-05-29T06:11:13.233Z,23.90
2018-05-29T06:13:40.762Z,24.00
2018-05-29T06:16:09.033Z,24.20
2018-05-29T06:18:37.305Z,24.30
2018-05-29T06:21:04.818Z,24.30
2018-05-29T06:23:32.323Z,24.30
2018-05-29T06:25:59.837Z,24.40
2018-05-29T06:28:27.353Z,24.40
2018-05-29T06:30:55.626Z,24.50
2018-05-29T06:33:23.896Z,24.60
2018-05-29T06:35:51.419Z,24.60
2018-05-29T06:38:18.952Z,24.70
2018-05-29T06:40:47.562Z,24.70
2018-05-29T06:43:15.203Z,24.70
2018-05-29T06:45:42.865Z,24.70
2018-05-29T06:48:10.491Z,24.70
2018-05-29T06:50:38.775Z,24.80
2018-05-29T06:53:07.060Z,24.80
2018-05-29T06:55:35.321Z,24.80
2018-05-29T06:58:03.597Z,24.90
2018-05-29T07:00:31.857Z,24.90
2018-05-29T07:02:59.353Z,24.90
2018-05-29T07:05:27.326Z,25.00
2018-05-29T07:07:54.869Z,25.10
2018-05-29T07:10:23.129Z,25.30
2018-05-29T07:12:50.697Z,25.20
2018-05-29T07:15:18.973Z,25.30
2018-05-29T07:17:47.241Z,25.40
2018-05-29T07:20:14.758Z,25.40
2018-05-29T07:22:42.269Z,25.40
2018-05-29T07:25:10.551Z,25.60
2018-05-29T07:27:38.066Z,25.60
2018-05-29T07:30:05.565Z,25.70
2018-05-29T07:32:33.871Z,25.80
2018-05-29T07:35:02.106Z,25.90
2018-05-29T07:37:30.382Z,25.90
2018-05-29T07:39:57.905Z,25.90
2018-05-29T07:42:25.423Z,26.00
2018-05-29T07:44:52.947Z,26.10
2018-05-29T07:47:20.450Z,26.20
2018-05-29T07:49:47.954Z,26.20
2018-05-29T07:52:15.453Z,26.30
2018-05-29T07:54:43.730Z,26.50
2018-05-29T07:57:11.999Z,26.60
2018-05-29T07:59:40.273Z,26.70
2018-05-29T08:02:08.551Z,26.70
2018-05-29T08:04:36.818Z,26.80
2018-05-29T08:07:05.791Z,26.90
2018-05-29T08:09:34.098Z,27.00
2018-05-29T08:12:02.371Z,27.10
2018-05-29T08:14:30.666Z,27.20
2018-05-29T08:16:58.173Z,27.20
2018-05-29T08:19:25.666Z,27.20
2018-05-29T08:21:53.935Z,27.30
2018-05-29T08:24:22.225Z,27.30
2018-05-29T08:26:50.489Z,27.50
2018-05-29T08:29:18.762Z,27.50
2018-05-29T08:31:47.022Z,27.60
2018-05-29T08:34:15.290Z,27.60
2018-05-29T08:36:42.795Z,27.60
2018-05-29T08:39:10.298Z,27.70
2018-05-29T08:41:37.802Z,27.80
2018-05-29T08:44:06.082Z,27.90
2018-05-29T08:46:34.350Z,28.00
2018-05-29T08:49:02.642Z,28.10
2018-05-29T08:51:30.142Z,28.00
2018-05-29T08:53:57.653Z,28.10
2018-05-29T08:56:25.930Z,28.20
2018-05-29T08:58:54.194Z,28.30
2018-05-29T09:01:22.462Z,28.30
2018-05-29T09:03:49.971Z,28.30
2018-05-29T09:06:17.481Z,28.40
2018-05-29T09:08:45.761Z,28.50
2018-05-29T09:11:14.030Z,28.50
2018-05-29T09:13:41.534Z,28.50
2018-05-29T09:16:09.034Z,28.60
2018-05-29T09:18:38.058Z,28.70
2018-05-29T09:21:06.325Z,28.70
2018-05-29T09:23:34.601Z,28.80
2018-05-29T09:26:02.940Z,28.90
2018-05-29T09:28:31.168Z,28.90
2018-05-29T09:30:59.448Z,29.00
2018-05-29T09:33:27.002Z,29.00
2018-05-29T09:35:54.521Z,29.00
2018-05-29T09:38:22.017Z,29.10
2018-05-29T09:40:50.280Z,29.20
2018-05-29T09:43:18.552Z,29.30
2018-05-29T09:45:46.086Z,29.20
2018-05-29T09:48:13.576Z,29.30
2018-05-29T09:50:41.862Z,29.30
2018-05-29T09:53:10.138Z,29.30
2018-05-29T09:55:38.397Z,29.30
2018-05-29T09:58:05.933Z,29.30
2018-05-29T10:00:39.090Z,29.40
2018-05-29T10:03:06.722Z,29.40
2018-05-29T10:05:34.986Z,29.50
2018-05-29T10:08:02.512Z,29.40
2018-05-29T10:10:30.015Z,29.40
2018-05-29T10:12:58.281Z,29.40
2018-05-29T10:15:25.789Z,29.40
2018-05-29T10:17:53.291Z,29.50
2018-05-29T10:20:20.814Z,29.50
2018-05-29T10:22:48.319Z,29.60
2018-05-29T10:25:16.601Z,29.80
2018-05-29T10:27:44.867Z,29.80
2018-05-29T10:30:13.147Z,29.80
2018-05-29T10:32:41.422Z,29.90
2018-05-29T10:35:09.701Z,30.00
2018-05-29T10:37:37.963Z,30.10
2018-05-29T10:40:08.780Z,30.10
2018-05-29T10:42:36.395Z,30.20
2018-05-29T10:45:03.915Z,30.30
2018-05-29T10:47:31.430Z,30.40
2018-05-29T10:49:58.917Z,30.50
2018-05-29T10:52:26.435Z,30.50
2018-05-29T10:54:54.702Z,30.70
2018-05-29T10:57:22.258Z,30.60
2018-05-29T10:59:50.517Z,30.80
2018-05-29T11:02:18.789Z,30.80
2018-05-29T11:04:47.054Z,30.90
2018-05-29T11:07:14.563Z,30.90
2018-05-29T11:09:42.076Z,31.10
2018-05-29T11:12:09.576Z,31.20
2018-05-29T11:14:37.073Z,31.30
2018-05-29T11:17:04.589Z,31.50
2018-05-29T11:19:32.082Z,31.70
2018-05-29T11:21:59.575Z,31.80
2018-05-29T11:24:27.082Z,31.80
2018-05-29T11:26:54.601Z,31.70
2018-05-29T11:29:22.874Z,31.30
2018-05-29T11:31:51.162Z,31.30
2018-05-29T11:34:19.415Z,31.50
2018-05-29T11:36:48.451Z,31.60
2018-05-29T11:39:15.948Z,31.60
2018-05-29T11:41:43.466Z,31.70
2018-05-29T11:44:10.969Z,31.80
2018-05-29T11:46:38.478Z,31.90
2018-05-29T11:49:05.981Z,32.10
2018-05-29T11:51:33.478Z,32.20
2018-05-29T11:54:01.769Z,32.20
2018-05-29T11:56:29.266Z,32.20
2018-05-29T11:58:56.779Z,32.20
2018-05-29T12:01:25.437Z,32.40
2018-05-29T12:03:54.437Z,32.40
2018-05-29T12:06:21.932Z,32.50
2018-05-29T12:08:49.442Z,32.50
2018-05-29T12:11:18.454Z,32.50
2018-05-29T12:13:46.735Z,32.60
2018-05-29T12:16:15.001Z,32.70
2018-05-29T12:18:42.510Z,32.70
2018-05-29T12:21:10.007Z,32.90
2018-05-29T12:23:37.510Z,33.00
2018-05-29T12:26:05.006Z,33.00
2018-05-29T12:28:32.502Z,33.10
2018-05-29T12:31:00.774Z,33.10
2018-05-29T12:33:29.049Z,33.20
2018-05-29T12:35:57.313Z,33.30
2018-05-29T12:38:24.817Z,33.30
2018-05-29T12:40:52.319Z,33.50
2018-05-29T12:43:19.829Z,33.50
2018-05-29T12:45:47.321Z,33.60
2018-05-29T12:48:14.823Z,33.60
2018-05-29T12:50:43.090Z,33.50
2018-05-29T12:53:10.585Z,33.50
2018-05-29T12:55:38.095Z,33.50
2018-05-29T12:58:05.610Z,33.50
2018-05-29T13:00:33.121Z,33.40
2018-05-29T13:03:00.627Z,33.40
2018-05-29T13:05:28.195Z,33.40
2018-05-29T13:07:55.721Z,33.30
2018-05-29T13:10:24.002Z,33.60
2018-05-29T13:12:52.258Z,33.60
2018-05-29T13:15:20.529Z,33.70
2018-05-29T13:17:48.039Z,33.70
2018-05-29T13:20:15.525Z,33.90
2018-05-29T13:22:43.034Z,33.90
2018-05-29T13:25:10.529Z,33.90
2018-05-29T13:27:38.026Z,34.10
2018-05-29T13:30:06.316Z,34.20
2018-05-29T13:32:34.601Z,34.20
2018-05-29T13:35:02.101Z,34.10
2018-05-29T13:37:29.594Z,34.10
2018-05-29T13:39:57.874Z,34.10
2018-05-29T13:42:26.153Z,34.10
2018-05-29T13:44:54.437Z,34.20
2018-05-29T13:47:22.699Z,34.20
2018-05-29T13:49:50.196Z,34.10
2018-05-29T13:52:17.699Z,34.20
2018-05-29T13:54:45.201Z,34.20
2018-05-29T13:57:12.739Z,34.30
2018-05-29T13:59:41.209Z,34.50
2018-05-29T14:02:08.703Z,34.50
2018-05-29T14:04:36.258Z,34.60
2018-05-29T14:07:03.767Z,34.60
2018-05-29T14:09:31.261Z,34.50
2018-05-29T14:11:59.539Z,34.50
2018-05-29T14:14:27.798Z,34.70
2018-05-29T14:16:55.294Z,34.70
2018-05-29T14:19:22.786Z,34.80
2018-05-29T14:21:50.293Z,34.80
2018-05-29T14:24:18.550Z,34.80
2018-05-29T14:26:46.061Z,34.80
2018-05-29T14:29:13.562Z,34.90
2018-05-29T14:31:41.066Z,35.00
2018-05-29T14:34:08.598Z,35.10
2018-05-29T14:36:36.857Z,35.30
2018-05-29T14:39:05.229Z,35.30
2018-05-29T14:41:32.822Z,35.30
2018-05-29T14:44:01.105Z,35.10
2018-05-29T14:46:29.352Z,35.10
2018-05-29T14:48:56.847Z,35.10
2018-05-29T14:51:24.371Z,34.80
2018-05-29T14:53:51.877Z,34.70
2018-05-29T14:56:22.693Z,34.60
2018-05-29T14:58:50.202Z,34.70
2018-05-29T15:01:17.717Z,34.70
2018-05-29T15:03:45.259Z,34.80
2018-05-29T15:06:13.526Z,34.90
2018-05-29T15:08:41.798Z,35.00
2018-05-29T15:11:10.061Z,34.90
2018-05-29T15:13:37.569Z,34.90
2018-05-29T15:16:05.077Z,34.70
2018-05-29T15:18:32.596Z,34.30
2018-05-29T15:21:00.077Z,34.00
2018-05-29T15:23:27.605Z,34.00
2018-05-29T15:25:55.107Z,33.90
2018-05-29T15:28:22.608Z,33.70
2018-05-29T15:30:50.105Z,33.80
2018-05-29T15:33:17.661Z,33.90
2018-05-29T15:35:45.154Z,34.00
2018-05-29T15:38:13.427Z,34.10
2018-05-29T15:40:40.936Z,34.10
2018-05-29T15:43:08.429Z,34.10
2018-05-29T15:45:35.934Z,34.00
2018-05-29T15:48:03.430Z,34.00
2018-05-29T15:50:30.929Z,33.90
2018-05-29T15:52:59.189Z,33.30
2018-05-29T15:55:26.700Z,33.30
2018-05-29T15:57:54.198Z,33.10
2018-05-29T16:00:21.685Z,32.80
2018-05-29T16:02:50.068Z,32.20
2018-05-29T16:05:18.330Z,32.00
2018-05-29T16:07:45.829Z,31.90
2018-05-29T16:10:13.342Z,31.70
2018-05-29T16:12:40.839Z,31.30
2018-05-29T16:15:08.337Z,31.00
2018-05-29T16:17:35.853Z,30.70
2018-05-29T16:20:03.369Z,30.50
2018-05-29T16:22:30.865Z,30.30
2018-05-29T16:24:58.369Z,30.00
2018-05-29T16:27:25.878Z,29.80
2018-05-29T16:29:53.377Z,29.50
2018-05-29T16:32:20.904Z,29.30
2018-05-29T16:34:48.394Z,29.10
2018-05-29T16:37:15.898Z,28.80
2018-05-29T16:39:44.169Z,28.50
2018-05-29T16:42:12.429Z,28.30
2018-05-29T16:44:39.933Z,28.30
2018-05-29T16:47:07.430Z,28.20
2018-05-29T16:49:34.942Z,28.00
2018-05-29T16:52:02.451Z,27.90
2018-05-29T16:54:29.945Z,27.70
2018-05-29T16:56:58.209Z,27.30
2018-05-29T16:59:26.493Z,27.10
2018-05-29T17:01:54.754Z,27.10
2018-05-29T17:04:22.345Z,27.10
2018-05-29T17:06:49.857Z,27.10
2018-05-29T17:09:17.369Z,27.10
2018-05-29T17:11:44.861Z,27.10
2018-05-29T17:14:12.353Z,27.10
2018-05-29T17:16:39.865Z,27.10
2018-05-29T17:19:07.357Z,27.10
2018-05-29T17:21:35.622Z,27.00
2018-05-29T17:24:03.146Z,27.00
2018-05-29T17:26:30.637Z,27.00
2018-05-29T17:28:58.144Z,27.00
2018-05-29T17:31:26.414Z,26.80
2018-05-29T17:33:54.673Z,26.70
2018-05-29T17:36:22.166Z,26.70
2018-05-29T17:38:49.673Z,26.60
2018-05-29T17:41:17.164Z,26.50
2018-05-29T17:43:45.418Z,26.30
2018-05-29T17:46:12.925Z,26.30
2018-05-29T17:48:40.422Z,26.30
2018-05-29T17:51:07.960Z,26.10
2018-05-29T17:53:35.465Z,26.10
2018-05-29T17:56:03.758Z,25.80
2018-05-29T17:58:32.018Z,25.60
2018-05-29T18:01:00.302Z,25.50
2018-05-29T18:03:28.579Z,25.40
2018-05-29T18:05:56.853Z,25.30
2018-05-29T18:08:25.137Z,25.30
2018-05-29T18:10:53.421Z,25.20
2018-05-29T18:13:20.946Z,25.10
2018-05-29T18:15:48.469Z,25.00
2018-05-29T18:18:15.962Z,24.90
2018-05-29T18:20:43.502Z,24.80
2018-05-29T18:23:11.007Z,24.70
2018-05-29T18:25:39.822Z,24.60
2018-05-29T18:28:07.321Z,24.60
2018-05-29T18:30:35.582Z,24.40
2018-05-29T18:33:03.078Z,24.40
2018-05-29T18:35:31.355Z,24.20
2018-05-29T18:37:59.615Z,24.20
2018-05-29T18:40:27.878Z,24.20
2018-05-29T18:42:55.409Z,24.10
2018-05-29T18:45:22.901Z,24.10
2018-05-29T18:47:50.393Z,24.20
2018-05-29T18:50:18.726Z,24.20
2018-05-29T18:52:46.211Z,24.20
2018-05-29T18:55:13.721Z,24.20
2018-05-29T18:57:41.235Z,24.10
2018-05-29T19:00:09.501Z,24.00
2018-05-29T19:02:37.782Z,24.00
2018-05-29T19:05:05.282Z,23.90
2018-05-29T19:07:32.778Z,24.00
2018-05-29T19:10:00.288Z,23.90
2018-05-29T19:12:28.502Z,23.90
2018-05-29T19:14:56.018Z,23.90
2018-05-29T19:17:23.514Z,23.90
2018-05-29T19:19:51.009Z,23.90
2018-05-29T19:22:19.273Z,24.00
2018-05-29T19:24:46.765Z,24.00
2018-05-29T19:27:14.269Z,24.10
2018-05-29T19:29:41.770Z,24.10
2018-05-29T19:32:10.029Z,24.00
2018-05-29T19:34:37.531Z,24.00
2018-05-29T19:37:05.025Z,24.00
2018-05-29T19:39:32.516Z,24.00
2018-05-29T19:42:00.793Z,24.00
2018-05-29T19:44:29.053Z,23.90
2018-05-29T19:46:56.546Z,23.90
2018-05-29T19:49:24.042Z,23.80
2018-05-29T19:51:51.558Z,23.80
2018-05-29T19:54:19.049Z,23.70
2018-05-29T19:56:46.552Z,23.50
2018-05-29T19:59:14.055Z,23.40
2018-05-29T20:01:41.546Z,23.30
2018-05-29T20:04:09.037Z,23.30
2018-05-29T20:06:37.297Z,23.10
2018-05-29T20:09:05.890Z,23.10
2018-05-29T20:11:34.257Z,23.10
2018-05-29T20:14:01.751Z,23.10
2018-05-29T20:16:29.255Z,23.10
2018-05-29T20:18:56.754Z,23.10
2018-05-29T20:21:25.021Z,23.10
2018-05-29T20:23:53.277Z,23.10
2018-05-29T20:26:20.765Z,23.10
2018-05-29T20:28:49.031Z,23.10
2018-05-29T20:31:17.351Z,23.20
2018-05-29T20:33:45.602Z,23.20
2018-05-29T20:36:13.089Z,23.10
2018-05-29T20:38:40.601Z,23.20
2018-05-29T20:41:08.881Z,23.20
2018-05-29T20:43:37.190Z,23.20
2018-05-29T20:46:05.429Z,23.20
2018-05-29T20:48:33.697Z,23.20
2018-05-29T20:51:01.973Z,23.10
2018-05-29T20:53:29.481Z,23.10
2018-05-29T20:55:56.993Z,23.10
2018-05-29T20:58:24.481Z,23.10
2018-05-29T21:00:51.990Z,23.10
2018-05-29T21:03:19.494Z,23.10
2018-05-29T21:05:46.989Z,23.00
2018-05-29T21:08:14.478Z,22.90
2018-05-29T21:10:41.966Z,22.90
2018-05-29T21:13:09.481Z,22.90
2018-05-29T21:15:37.010Z,22.90
2018-05-29T21:18:04.536Z,22.90
2018-05-29T21:20:32.794Z,22.70
2018-05-29T21:23:00.302Z,22.70
2018-05-29T21:25:27.802Z,22.70
2018-05-29T21:27:55.294Z,22.60
2018-05-29T21:30:23.566Z,22.70
2018-05-29T21:32:51.825Z,22.60
2018-05-29T21:35:20.094Z,22.70
2018-05-29T21:37:47.586Z,22.60
2018-05-29T21:40:15.137Z,22.70
2018-05-29T21:42:42.637Z,22.70
2018-05-29T21:45:10.129Z,22.80
2018-05-29T21:47:37.621Z,22.80
2018-05-29T21:50:05.118Z,22.80
2018-05-29T21:52:32.609Z,22.80
2018-05-29T21:55:00.887Z,22.90
2018-05-29T21:57:29.149Z,22.90
2018-05-29T21:59:56.703Z,22.90
2018-05-29T22:02:24.174Z,23.00
2018-05-29T22:04:52.442Z,23.10
2018-05-29T22:07:19.954Z,23.10
2018-05-29T22:09:47.440Z,23.10
2018-05-29T22:12:14.934Z,23.00
2018-05-29T22:14:43.229Z,22.90
2018-05-29T22:17:10.742Z,23.00
2018-05-29T22:19:38.234Z,23.00
2018-05-29T22:22:06.501Z,23.00
2018-05-29T22:24:34.790Z,23.00
2018-05-29T22:27:03.054Z,23.00
2018-05-29T22:29:31.321Z,23.00
2018-05-29T22:31:58.826Z,23.00
2018-05-29T22:34:26.313Z,23.00
2018-05-29T22:36:53.806Z,23.00
2018-05-29T22:39:22.074Z,23.00
2018-05-29T22:41:49.569Z,22.90
2018-05-29T22:44:17.058Z,22.90
2018-05-29T22:46:44.558Z,22.80
2018-05-29T22:49:12.845Z,22.80
2018-05-29T22:51:41.100Z,22.70
2018-05-29T22:54:08.681Z,22.80
2018-05-29T22:56:36.945Z,22.80
2018-05-29T22:59:05.209Z,22.90
2018-05-29T23:44:52.772Z,23.10
2018-05-29T23:47:20.265Z,23.10
2018-05-29T23:49:47.782Z,23.10
2018-05-29T23:52:15.287Z,23.10
2018-05-29T23:54:42.797Z,23.10
2018-05-29T23:57:10.294Z,23.10
2018-05-29T23:59:37.795Z,23.10
